sensor_id;sensor_type;location;lat;lon;timestamp;P1;durP1;ratioP1;P2;durP2;ratioP2
20557;SDS011;10437;48.156;11.530;2022-07-18T00:00:00;5.07;;;2.10;;
20557;SDS011;10437;48.156;11.530;2022-07-18T00:02:29;3.58;;;2.30;;
20557;SDS011;10437;48.156;11.530;2022-07-18T00:04:56;2.97;;;2.03;;
20557;SDS011;10437;48.156;11.530;2022-07-18T00:07:23;6.75;;;2.40;;
20557;SDS011;10437;48.156;11.530;2022-07-18T00:09:50;5.07;;;2.35;;
20557;SDS011;10437;48.156;11.530;2022-07-18T00:12:17;2.78;;;1.85;;
20557;SDS011;10437;48.156;11.530;2022-07-18T00:14:44;2.40;;;1.95;;
20557;SDS011;10437;48.156;11.530;2022-07-18T00:17:11;3.28;;;2.10;;
20557;SDS011;10437;48.156;11.530;2022-07-18T00:19:40;2.80;;;1.90;;
20557;SDS011;10437;48.156;11.530;2022-07-18T00:22:07;3.53;;;2.10;;
20557;SDS011;10437;48.156;11.530;2022-07-18T00:24:34;5.60;;;2.53;;
20557;SDS011;10437;48.156;11.530;2022-07-18T00:27:02;2.70;;;1.90;;
20557;SDS011;10437;48.156;11.530;2022-07-18T00:29:32;2.97;;;1.73;;
20557;SDS011;10437;48.156;11.530;2022-07-18T00:32:01;3.35;;;1.80;;
20557;SDS011;10437;48.156;11.530;2022-07-18T00:34:28;2.45;;;2.00;;
20557;SDS011;10437;48.156;11.530;2022-07-18T00:36:56;5.00;;;1.85;;
20557;SDS011;10437;48.156;11.530;2022-07-18T00:39:23;2.80;;;2.05;;
20557;SDS011;10437;48.156;11.530;2022-07-18T00:41:50;5.10;;;2.22;;
20557;SDS011;10437;48.156;11.530;2022-07-18T00:44:18;2.70;;;2.10;;
20557;SDS011;10437;48.156;11.530;2022-07-18T00:46:45;5.30;;;2.25;;
20557;SDS011;10437;48.156;11.530;2022-07-18T00:49:12;3.40;;;1.92;;
20557;SDS011;10437;48.156;11.530;2022-07-18T00:51:39;4.40;;;2.40;;
20557;SDS011;10437;48.156;11.530;2022-07-18T00:54:07;5.68;;;2.13;;
20557;SDS011;10437;48.156;11.530;2022-07-18T00:56:35;5.80;;;2.20;;
20557;SDS011;10437;48.156;11.530;2022-07-18T00:59:02;2.97;;;2.30;;
20557;SDS011;10437;48.156;11.530;2022-07-18T01:01:29;8.90;;;2.03;;
20557;SDS011;10437;48.156;11.530;2022-07-18T01:04:07;3.35;;;2.20;;
20557;SDS011;10437;48.156;11.530;2022-07-18T01:06:34;5.00;;;2.05;;
20557;SDS011;10437;48.156;11.530;2022-07-18T01:09:01;3.38;;;2.20;;
20557;SDS011;10437;48.156;11.530;2022-07-18T01:11:30;3.80;;;2.10;;
20557;SDS011;10437;48.156;11.530;2022-07-18T01:13:57;2.88;;;2.20;;
20557;SDS011;10437;48.156;11.530;2022-07-18T01:16:24;4.35;;;2.20;;
20557;SDS011;10437;48.156;11.530;2022-07-18T01:18:52;3.40;;;2.30;;
20557;SDS011;10437;48.156;11.530;2022-07-18T01:21:20;4.15;;;1.92;;
20557;SDS011;10437;48.156;11.530;2022-07-18T01:23:47;4.80;;;2.10;;
20557;SDS011;10437;48.156;11.530;2022-07-18T01:26:15;5.93;;;2.30;;
20557;SDS011;10437;48.156;11.530;2022-07-18T01:28:43;3.15;;;2.35;;
20557;SDS011;10437;48.156;11.530;2022-07-18T01:31:10;5.10;;;2.30;;
20557;SDS011;10437;48.156;11.530;2022-07-18T01:33:37;2.85;;;2.22;;
20557;SDS011;10437;48.156;11.530;2022-07-18T01:36:05;5.43;;;2.45;;
20557;SDS011;10437;48.156;11.530;2022-07-18T01:38:34;4.25;;;2.30;;
20557;SDS011;10437;48.156;11.530;2022-07-18T01:41:02;3.83;;;2.60;;
20557;SDS011;10437;48.156;11.530;2022-07-18T01:43:29;3.53;;;2.33;;
20557;SDS011;10437;48.156;11.530;2022-07-18T01:45:56;3.17;;;2.25;;
20557;SDS011;10437;48.156;11.530;2022-07-18T01:48:23;3.55;;;2.33;;
20557;SDS011;10437;48.156;11.530;2022-07-18T01:50:51;3.83;;;2.20;;
20557;SDS011;10437;48.156;11.530;2022-07-18T01:53:18;3.92;;;2.28;;
20557;SDS011;10437;48.156;11.530;2022-07-18T01:55:47;3.13;;;1.98;;
20557;SDS011;10437;48.156;11.530;2022-07-18T01:58:14;4.40;;;2.20;;
20557;SDS011;10437;48.156;11.530;2022-07-18T02:00:41;3.25;;;2.30;;
20557;SDS011;10437;48.156;11.530;2022-07-18T02:03:08;6.30;;;2.78;;
20557;SDS011;10437;48.156;11.530;2022-07-18T02:05:35;3.83;;;2.25;;
20557;SDS011;10437;48.156;11.530;2022-07-18T02:08:03;4.55;;;2.60;;
20557;SDS011;10437;48.156;11.530;2022-07-18T02:10:30;3.38;;;2.30;;
20557;SDS011;10437;48.156;11.530;2022-07-18T02:12:58;4.90;;;2.28;;
20557;SDS011;10437;48.156;11.530;2022-07-18T02:15:25;4.30;;;2.50;;
20557;SDS011;10437;48.156;11.530;2022-07-18T02:17:52;3.55;;;2.42;;
20557;SDS011;10437;48.156;11.530;2022-07-18T02:20:19;4.10;;;2.72;;
20557;SDS011;10437;48.156;11.530;2022-07-18T02:22:46;5.40;;;2.85;;
20557;SDS011;10437;48.156;11.530;2022-07-18T02:25:14;4.78;;;2.97;;
20557;SDS011;10437;48.156;11.530;2022-07-18T02:27:41;5.13;;;2.90;;
20557;SDS011;10437;48.156;11.530;2022-07-18T02:30:10;6.50;;;2.90;;
20557;SDS011;10437;48.156;11.530;2022-07-18T02:32:37;5.60;;;3.03;;
20557;SDS011;10437;48.156;11.530;2022-07-18T02:35:05;5.07;;;3.00;;
20557;SDS011;10437;48.156;11.530;2022-07-18T02:37:33;4.95;;;2.67;;
20557;SDS011;10437;48.156;11.530;2022-07-18T02:40:03;6.22;;;3.13;;
20557;SDS011;10437;48.156;11.530;2022-07-18T02:42:31;4.55;;;2.95;;
20557;SDS011;10437;48.156;11.530;2022-07-18T02:44:58;4.82;;;2.75;;
20557;SDS011;10437;48.156;11.530;2022-07-18T02:47:27;7.18;;;3.13;;
20557;SDS011;10437;48.156;11.530;2022-07-18T02:49:53;5.00;;;3.10;;
20557;SDS011;10437;48.156;11.530;2022-07-18T02:52:20;4.90;;;3.08;;
20557;SDS011;10437;48.156;11.530;2022-07-18T02:54:48;5.72;;;2.85;;
20557;SDS011;10437;48.156;11.530;2022-07-18T02:57:15;4.70;;;3.03;;
20557;SDS011;10437;48.156;11.530;2022-07-18T02:59:42;6.10;;;3.25;;
20557;SDS011;10437;48.156;11.530;2022-07-18T03:02:10;5.35;;;3.08;;
20557;SDS011;10437;48.156;11.530;2022-07-18T03:04:39;5.13;;;3.38;;
20557;SDS011;10437;48.156;11.530;2022-07-18T03:07:06;5.82;;;3.17;;
20557;SDS011;10437;48.156;11.530;2022-07-18T03:09:33;6.65;;;3.55;;
20557;SDS011;10437;48.156;11.530;2022-07-18T03:12:00;4.45;;;2.90;;
20557;SDS011;10437;48.156;11.530;2022-07-18T03:14:27;4.72;;;3.13;;
20557;SDS011;10437;48.156;11.530;2022-07-18T03:16:54;5.53;;;3.47;;
20557;SDS011;10437;48.156;11.530;2022-07-18T03:19:21;6.07;;;2.83;;
20557;SDS011;10437;48.156;11.530;2022-07-18T03:21:50;5.88;;;3.28;;
20557;SDS011;10437;48.156;11.530;2022-07-18T03:24:17;5.85;;;3.40;;
20557;SDS011;10437;48.156;11.530;2022-07-18T03:26:44;7.25;;;3.30;;
20557;SDS011;10437;48.156;11.530;2022-07-18T03:29:11;5.93;;;2.72;;
20557;SDS011;10437;48.156;11.530;2022-07-18T03:31:39;5.63;;;3.17;;
20557;SDS011;10437;48.156;11.530;2022-07-18T03:34:06;6.00;;;3.10;;
20557;SDS011;10437;48.156;11.530;2022-07-18T03:36:33;5.82;;;2.80;;
20557;SDS011;10437;48.156;11.530;2022-07-18T03:39:02;4.78;;;2.92;;
20557;SDS011;10437;48.156;11.530;2022-07-18T03:41:29;6.50;;;3.00;;
20557;SDS011;10437;48.156;11.530;2022-07-18T03:43:57;4.35;;;2.67;;
20557;SDS011;10437;48.156;11.530;2022-07-18T03:46:23;4.18;;;2.42;;
20557;SDS011;10437;48.156;11.530;2022-07-18T03:48:51;3.70;;;3.00;;
20557;SDS011;10437;48.156;11.530;2022-07-18T03:51:18;7.55;;;2.63;;
20557;SDS011;10437;48.156;11.530;2022-07-18T03:53:45;3.40;;;2.60;;
20557;SDS011;10437;48.156;11.530;2022-07-18T03:56:13;9.65;;;2.70;;
20557;SDS011;10437;48.156;11.530;2022-07-18T03:58:41;4.10;;;2.92;;
20557;SDS011;10437;48.156;11.530;2022-07-18T04:01:08;6.45;;;2.97;;
20557;SDS011;10437;48.156;11.530;2022-07-18T04:03:35;5.57;;;2.88;;
20557;SDS011;10437;48.156;11.530;2022-07-18T04:06:02;4.00;;;2.60;;
20557;SDS011;10437;48.156;11.530;2022-07-18T04:08:29;5.07;;;2.70;;
20557;SDS011;10437;48.156;11.530;2022-07-18T04:10:57;5.70;;;3.05;;
20557;SDS011;10437;48.156;11.530;2022-07-18T04:13:25;3.85;;;2.80;;
20557;SDS011;10437;48.156;11.530;2022-07-18T04:15:52;5.07;;;2.75;;
20557;SDS011;10437;48.156;11.530;2022-07-18T04:18:19;4.88;;;2.78;;
20557;SDS011;10437;48.156;11.530;2022-07-18T04:20:46;5.07;;;2.97;;
20557;SDS011;10437;48.156;11.530;2022-07-18T04:23:13;2.95;;;2.60;;
20557;SDS011;10437;48.156;11.530;2022-07-18T04:25:41;5.78;;;3.10;;
20557;SDS011;10437;48.156;11.530;2022-07-18T04:28:09;5.90;;;3.08;;
20557;SDS011;10437;48.156;11.530;2022-07-18T04:30:39;4.07;;;2.80;;
20557;SDS011;10437;48.156;11.530;2022-07-18T04:33:07;4.28;;;2.75;;
20557;SDS011;10437;48.156;11.530;2022-07-18T04:35:35;3.58;;;2.25;;
20557;SDS011;10437;48.156;11.530;2022-07-18T04:38:04;4.53;;;2.83;;
20557;SDS011;10437;48.156;11.530;2022-07-18T04:40:32;7.55;;;2.80;;
20557;SDS011;10437;48.156;11.530;2022-07-18T04:42:59;5.32;;;2.67;;
20557;SDS011;10437;48.156;11.530;2022-07-18T04:45:26;3.53;;;2.70;;
20557;SDS011;10437;48.156;11.530;2022-07-18T04:47:55;4.97;;;2.95;;
20557;SDS011;10437;48.156;11.530;2022-07-18T04:50:22;3.80;;;2.60;;
20557;SDS011;10437;48.156;11.530;2022-07-18T04:52:50;3.95;;;2.55;;
20557;SDS011;10437;48.156;11.530;2022-07-18T04:55:18;4.05;;;2.90;;
20557;SDS011;10437;48.156;11.530;2022-07-18T04:57:46;5.60;;;2.75;;
20557;SDS011;10437;48.156;11.530;2022-07-18T05:00:14;4.15;;;2.75;;
20557;SDS011;10437;48.156;11.530;2022-07-18T05:02:44;4.80;;;2.70;;
20557;SDS011;10437;48.156;11.530;2022-07-18T05:05:14;9.70;;;2.80;;
20557;SDS011;10437;48.156;11.530;2022-07-18T05:07:43;6.22;;;3.20;;
20557;SDS011;10437;48.156;11.530;2022-07-18T05:10:11;5.82;;;2.75;;
20557;SDS011;10437;48.156;11.530;2022-07-18T05:12:39;5.97;;;2.78;;
20557;SDS011;10437;48.156;11.530;2022-07-18T05:15:08;4.28;;;2.70;;
20557;SDS011;10437;48.156;11.530;2022-07-18T05:17:36;5.85;;;2.90;;
20557;SDS011;10437;48.156;11.530;2022-07-18T05:20:04;4.68;;;3.20;;
20557;SDS011;10437;48.156;11.530;2022-07-18T05:22:33;6.07;;;3.05;;
20557;SDS011;10437;48.156;11.530;2022-07-18T05:25:02;7.13;;;2.60;;
20557;SDS011;10437;48.156;11.530;2022-07-18T05:27:30;5.55;;;2.80;;
20557;SDS011;10437;48.156;11.530;2022-07-18T05:29:57;5.10;;;3.33;;
20557;SDS011;10437;48.156;11.530;2022-07-18T05:32:25;6.03;;;2.80;;
20557;SDS011;10437;48.156;11.530;2022-07-18T05:34:52;8.27;;;3.10;;
20557;SDS011;10437;48.156;11.530;2022-07-18T05:37:19;4.20;;;2.75;;
20557;SDS011;10437;48.156;11.530;2022-07-18T05:39:48;5.95;;;2.85;;
20557;SDS011;10437;48.156;11.530;2022-07-18T05:42:16;4.78;;;2.90;;
20557;SDS011;10437;48.156;11.530;2022-07-18T05:44:43;6.07;;;3.00;;
20557;SDS011;10437;48.156;11.530;2022-07-18T05:47:10;4.78;;;3.00;;
20557;SDS011;10437;48.156;11.530;2022-07-18T05:49:38;5.70;;;2.88;;
20557;SDS011;10437;48.156;11.530;2022-07-18T05:52:06;8.55;;;3.05;;
20557;SDS011;10437;48.156;11.530;2022-07-18T05:54:33;8.35;;;3.20;;
20557;SDS011;10437;48.156;11.530;2022-07-18T05:57:01;6.97;;;3.15;;
20557;SDS011;10437;48.156;11.530;2022-07-18T05:59:28;7.63;;;3.20;;
20557;SDS011;10437;48.156;11.530;2022-07-18T06:01:56;4.78;;;3.17;;
20557;SDS011;10437;48.156;11.530;2022-07-18T06:04:23;4.18;;;3.17;;
20557;SDS011;10437;48.156;11.530;2022-07-18T06:06:50;5.32;;;3.10;;
20557;SDS011;10437;48.156;11.530;2022-07-18T06:09:17;4.10;;;3.00;;
20557;SDS011;10437;48.156;11.530;2022-07-18T06:11:44;6.55;;;3.25;;
20557;SDS011;10437;48.156;11.530;2022-07-18T06:14:13;7.72;;;3.17;;
20557;SDS011;10437;48.156;11.530;2022-07-18T06:16:40;5.13;;;3.13;;
20557;SDS011;10437;48.156;11.530;2022-07-18T06:19:07;5.78;;;2.92;;
20557;SDS011;10437;48.156;11.530;2022-07-18T06:21:34;4.20;;;2.97;;
20557;SDS011;10437;48.156;11.530;2022-07-18T06:24:01;7.03;;;2.67;;
20557;SDS011;10437;48.156;11.530;2022-07-18T06:26:28;5.30;;;2.85;;
20557;SDS011;10437;48.156;11.530;2022-07-18T06:28:55;4.72;;;2.72;;
20557;SDS011;10437;48.156;11.530;2022-07-18T06:31:24;5.63;;;2.95;;
20557;SDS011;10437;48.156;11.530;2022-07-18T06:33:51;5.10;;;3.38;;
20557;SDS011;10437;48.156;11.530;2022-07-18T06:36:18;6.72;;;3.40;;
20557;SDS011;10437;48.156;11.530;2022-07-18T06:38:48;8.77;;;2.95;;
20557;SDS011;10437;48.156;11.530;2022-07-18T06:41:15;6.18;;;2.80;;
20557;SDS011;10437;48.156;11.530;2022-07-18T06:43:43;5.70;;;2.85;;
20557;SDS011;10437;48.156;11.530;2022-07-18T06:46:10;7.97;;;2.92;;
20557;SDS011;10437;48.156;11.530;2022-07-18T06:48:38;7.57;;;2.95;;
20557;SDS011;10437;48.156;11.530;2022-07-18T06:51:06;4.95;;;2.95;;
20557;SDS011;10437;48.156;11.530;2022-07-18T06:53:33;7.93;;;3.55;;
20557;SDS011;10437;48.156;11.530;2022-07-18T06:56:01;7.70;;;3.33;;
20557;SDS011;10437;48.156;11.530;2022-07-18T06:58:30;4.90;;;2.70;;
20557;SDS011;10437;48.156;11.530;2022-07-18T07:00:57;8.45;;;2.92;;
20557;SDS011;10437;48.156;11.530;2022-07-18T07:03:24;7.40;;;2.72;;
20557;SDS011;10437;48.156;11.530;2022-07-18T07:05:52;5.40;;;2.80;;
20557;SDS011;10437;48.156;11.530;2022-07-18T07:08:19;7.75;;;3.30;;
20557;SDS011;10437;48.156;11.530;2022-07-18T07:10:47;4.60;;;2.83;;
20557;SDS011;10437;48.156;11.530;2022-07-18T07:13:14;7.43;;;3.00;;
20557;SDS011;10437;48.156;11.530;2022-07-18T07:15:41;5.32;;;2.97;;
20557;SDS011;10437;48.156;11.530;2022-07-18T07:18:08;6.68;;;3.10;;
20557;SDS011;10437;48.156;11.530;2022-07-18T07:20:36;7.00;;;3.10;;
20557;SDS011;10437;48.156;11.530;2022-07-18T07:23:05;8.20;;;3.00;;
20557;SDS011;10437;48.156;11.530;2022-07-18T07:25:34;6.72;;;3.13;;
20557;SDS011;10437;48.156;11.530;2022-07-18T07:28:01;12.18;;;2.70;;
20557;SDS011;10437;48.156;11.530;2022-07-18T07:30:29;4.55;;;2.70;;
20557;SDS011;10437;48.156;11.530;2022-07-18T07:32:56;8.35;;;2.85;;
20557;SDS011;10437;48.156;11.530;2022-07-18T07:35:24;8.07;;;3.00;;
20557;SDS011;10437;48.156;11.530;2022-07-18T07:37:52;7.32;;;2.80;;
20557;SDS011;10437;48.156;11.530;2022-07-18T07:40:22;7.50;;;2.95;;
20557;SDS011;10437;48.156;11.530;2022-07-18T07:42:49;9.38;;;2.75;;
20557;SDS011;10437;48.156;11.530;2022-07-18T07:45:16;3.60;;;2.30;;
20557;SDS011;10437;48.156;11.530;2022-07-18T07:47:44;7.60;;;2.83;;
20557;SDS011;10437;48.156;11.530;2022-07-18T07:50:12;4.65;;;2.28;;
20557;SDS011;10437;48.156;11.530;2022-07-18T07:52:39;5.50;;;2.00;;
20557;SDS011;10437;48.156;11.530;2022-07-18T07:55:07;7.97;;;2.20;;
20557;SDS011;10437;48.156;11.530;2022-07-18T07:57:35;2.78;;;1.90;;
20557;SDS011;10437;48.156;11.530;2022-07-18T08:00:05;5.68;;;2.05;;
20557;SDS011;10437;48.156;11.530;2022-07-18T08:02:33;8.93;;;2.03;;
20557;SDS011;10437;48.156;11.530;2022-07-18T08:05:00;3.25;;;2.08;;
20557;SDS011;10437;48.156;11.530;2022-07-18T08:07:28;4.82;;;1.85;;
20557;SDS011;10437;48.156;11.530;2022-07-18T08:09:55;5.20;;;1.80;;
20557;SDS011;10437;48.156;11.530;2022-07-18T08:12:22;6.05;;;2.00;;
20557;SDS011;10437;48.156;11.530;2022-07-18T08:14:51;8.32;;;2.25;;
20557;SDS011;10437;48.156;11.530;2022-07-18T08:17:18;5.47;;;1.88;;
20557;SDS011;10437;48.156;11.530;2022-07-18T08:19:45;3.25;;;1.95;;
20557;SDS011;10437;48.156;11.530;2022-07-18T08:22:12;2.35;;;1.75;;
20557;SDS011;10437;48.156;11.530;2022-07-18T08:24:39;5.68;;;1.60;;
20557;SDS011;10437;48.156;11.530;2022-07-18T08:27:07;2.13;;;1.80;;
20557;SDS011;10437;48.156;11.530;2022-07-18T08:29:34;3.35;;;1.80;;
20557;SDS011;10437;48.156;11.530;2022-07-18T08:32:03;3.20;;;2.00;;
20557;SDS011;10437;48.156;11.530;2022-07-18T08:34:30;2.90;;;1.67;;
20557;SDS011;10437;48.156;11.530;2022-07-18T08:36:57;2.85;;;1.58;;
20557;SDS011;10437;48.156;11.530;2022-07-18T08:39:24;4.10;;;1.50;;
20557;SDS011;10437;48.156;11.530;2022-07-18T08:41:51;3.28;;;1.40;;
20557;SDS011;10437;48.156;11.530;2022-07-18T08:44:18;1.60;;;1.40;;
20557;SDS011;10437;48.156;11.530;2022-07-18T08:46:51;3.35;;;1.65;;
20557;SDS011;10437;48.156;11.530;2022-07-18T08:49:20;2.80;;;1.58;;
20557;SDS011;10437;48.156;11.530;2022-07-18T08:51:47;5.60;;;1.70;;
20557;SDS011;10437;48.156;11.530;2022-07-18T08:54:15;4.20;;;1.55;;
20557;SDS011;10437;48.156;11.530;2022-07-18T08:56:42;3.33;;;1.40;;
20557;SDS011;10437;48.156;11.530;2022-07-18T08:59:09;2.60;;;1.58;;
20557;SDS011;10437;48.156;11.530;2022-07-18T09:01:36;4.15;;;1.60;;
20557;SDS011;10437;48.156;11.530;2022-07-18T09:04:04;8.27;;;1.60;;
20557;SDS011;10437;48.156;11.530;2022-07-18T09:06:47;6.10;;;1.67;;
20557;SDS011;10437;48.156;11.530;2022-07-18T09:09:17;1.88;;;1.40;;
20557;SDS011;10437;48.156;11.530;2022-07-18T09:11:50;4.85;;;1.70;;
20557;SDS011;10437;48.156;11.530;2022-07-18T09:14:32;6.28;;;1.73;;
20557;SDS011;10437;48.156;11.530;2022-07-18T09:17:04;4.90;;;1.83;;
20557;SDS011;10437;48.156;11.530;2022-07-18T09:19:32;4.60;;;1.80;;
20557;SDS011;10437;48.156;11.530;2022-07-18T09:22:15;5.53;;;1.92;;
20557;SDS011;10437;48.156;11.530;2022-07-18T09:24:50;3.08;;;1.95;;
20557;SDS011;10437;48.156;11.530;2022-07-18T09:27:22;3.35;;;1.80;;
20557;SDS011;10437;48.156;11.530;2022-07-18T09:30:14;7.00;;;1.73;;
20557;SDS011;10437;48.156;11.530;2022-07-18T09:32:44;2.17;;;1.23;;
20557;SDS011;10437;48.156;11.530;2022-07-18T09:35:13;2.85;;;1.50;;
20557;SDS011;10437;48.156;11.530;2022-07-18T09:37:52;2.08;;;1.70;;
20557;SDS011;10437;48.156;11.530;2022-07-18T09:40:25;8.20;;;1.75;;
20557;SDS011;10437;48.156;11.530;2022-07-18T09:42:54;3.05;;;1.75;;
20557;SDS011;10437;48.156;11.530;2022-07-18T09:45:22;5.78;;;1.70;;
20557;SDS011;10437;48.156;11.530;2022-07-18T09:47:51;3.42;;;1.88;;
20557;SDS011;10437;48.156;11.530;2022-07-18T09:50:24;3.17;;;1.30;;
20557;SDS011;10437;48.156;11.530;2022-07-18T09:52:58;3.33;;;1.65;;
20557;SDS011;10437;48.156;11.530;2022-07-18T09:55:30;3.80;;;1.50;;
20557;SDS011;10437;48.156;11.530;2022-07-18T09:57:58;6.45;;;1.48;;
20557;SDS011;10437;48.156;11.530;2022-07-18T10:00:27;2.65;;;1.38;;
20557;SDS011;10437;48.156;11.530;2022-07-18T10:02:54;2.80;;;1.30;;
20557;SDS011;10437;48.156;11.530;2022-07-18T10:05:24;2.10;;;1.40;;
20557;SDS011;10437;48.156;11.530;2022-07-18T10:07:52;3.35;;;1.55;;
20557;SDS011;10437;48.156;11.530;2022-07-18T10:10:21;2.90;;;1.50;;
20557;SDS011;10437;48.156;11.530;2022-07-18T10:12:50;6.07;;;1.38;;
20557;SDS011;10437;48.156;11.530;2022-07-18T10:15:19;3.97;;;1.70;;
20557;SDS011;10437;48.156;11.530;2022-07-18T10:17:47;2.80;;;1.42;;
20557;SDS011;10437;48.156;11.530;2022-07-18T10:20:15;2.55;;;1.42;;
20557;SDS011;10437;48.156;11.530;2022-07-18T10:22:42;2.67;;;1.20;;
20557;SDS011;10437;48.156;11.530;2022-07-18T10:25:11;3.25;;;1.58;;
20557;SDS011;10437;48.156;11.530;2022-07-18T10:30:30;3.72;;;1.30;;
20557;SDS011;10437;48.156;11.530;2022-07-18T10:32:59;2.80;;;1.15;;
20557;SDS011;10437;48.156;11.530;2022-07-18T10:38:27;5.32;;;1.45;;
20557;SDS011;10437;48.156;11.530;2022-07-18T10:43:44;1.38;;;1.20;;
20557;SDS011;10437;48.156;11.530;2022-07-18T10:46:11;5.43;;;1.35;;
20557;SDS011;10437;48.156;11.530;2022-07-18T10:48:57;1.90;;;1.40;;
20557;SDS011;10437;48.156;11.530;2022-07-18T10:51:30;5.15;;;1.30;;
20557;SDS011;10437;48.156;11.530;2022-07-18T10:54:05;2.78;;;1.30;;
20557;SDS011;10437;48.156;11.530;2022-07-18T10:59:34;3.25;;;1.40;;
20557;SDS011;10437;48.156;11.530;2022-07-18T11:02:03;3.53;;;1.25;;
20557;SDS011;10437;48.156;11.530;2022-07-18T11:04:33;3.75;;;1.23;;
20557;SDS011;10437;48.156;11.530;2022-07-18T11:07:03;7.15;;;1.50;;
20557;SDS011;10437;48.156;11.530;2022-07-18T11:09:32;3.55;;;1.80;;
20557;SDS011;10437;48.156;11.530;2022-07-18T11:12:21;2.03;;;1.67;;
20557;SDS011;10437;48.156;11.530;2022-07-18T11:17:54;4.53;;;1.50;;
20557;SDS011;10437;48.156;11.530;2022-07-18T11:20:26;3.13;;;1.50;;
20557;SDS011;10437;48.156;11.530;2022-07-18T11:23:19;2.13;;;1.40;;
20557;SDS011;10437;48.156;11.530;2022-07-18T11:25:48;6.68;;;1.70;;
20557;SDS011;10437;48.156;11.530;2022-07-18T11:28:19;5.88;;;1.60;;
20557;SDS011;10437;48.156;11.530;2022-07-18T11:30:59;3.20;;;1.50;;
20557;SDS011;10437;48.156;11.530;2022-07-18T11:33:28;2.72;;;1.50;;
20557;SDS011;10437;48.156;11.530;2022-07-18T11:36:03;3.55;;;1.48;;
20557;SDS011;10437;48.156;11.530;2022-07-18T11:38:31;2.15;;;1.58;;
20557;SDS011;10437;48.156;11.530;2022-07-18T11:40:59;2.38;;;1.40;;
20557;SDS011;10437;48.156;11.530;2022-07-18T11:43:26;3.28;;;1.50;;
20557;SDS011;10437;48.156;11.530;2022-07-18T11:46:01;5.07;;;1.60;;
20557;SDS011;10437;48.156;11.530;2022-07-18T11:48:30;3.45;;;1.30;;
20557;SDS011;10437;48.156;11.530;2022-07-18T11:50:57;2.03;;;1.33;;
20557;SDS011;10437;48.156;11.530;2022-07-18T11:53:24;3.15;;;1.63;;
20557;SDS011;10437;48.156;11.530;2022-07-18T11:55:52;3.25;;;1.42;;
20557;SDS011;10437;48.156;11.530;2022-07-18T11:58:22;2.75;;;1.42;;
20557;SDS011;10437;48.156;11.530;2022-07-18T12:00:49;5.28;;;1.20;;
20557;SDS011;10437;48.156;11.530;2022-07-18T12:03:18;2.60;;;1.50;;
20557;SDS011;10437;48.156;11.530;2022-07-18T12:05:48;2.15;;;1.60;;
20557;SDS011;10437;48.156;11.530;2022-07-18T12:08:32;4.30;;;1.55;;
20557;SDS011;10437;48.156;11.530;2022-07-18T12:11:10;2.47;;;1.40;;
20557;SDS011;10437;48.156;11.530;2022-07-18T12:16:26;2.33;;;1.40;;
20557;SDS011;10437;48.156;11.530;2022-07-18T12:18:59;4.43;;;1.55;;
20557;SDS011;10437;48.156;11.530;2022-07-18T12:21:40;3.45;;;1.80;;
20557;SDS011;10437;48.156;11.530;2022-07-18T12:24:19;2.55;;;1.23;;
20557;SDS011;10437;48.156;11.530;2022-07-18T12:26:56;5.20;;;2.03;;
20557;SDS011;10437;48.156;11.530;2022-07-18T12:29:54;2.72;;;1.42;;
20557;SDS011;10437;48.156;11.530;2022-07-18T12:32:24;2.95;;;1.70;;
20557;SDS011;10437;48.156;11.530;2022-07-18T12:34:56;4.85;;;1.58;;
20557;SDS011;10437;48.156;11.530;2022-07-18T12:37:25;2.50;;;1.30;;
20557;SDS011;10437;48.156;11.530;2022-07-18T12:39:58;1.95;;;1.27;;
20557;SDS011;10437;48.156;11.530;2022-07-18T12:42:29;3.35;;;1.50;;
20557;SDS011;10437;48.156;11.530;2022-07-18T12:44:58;3.47;;;1.40;;
20557;SDS011;10437;48.156;11.530;2022-07-18T12:47:25;2.15;;;1.40;;
20557;SDS011;10437;48.156;11.530;2022-07-18T12:49:52;10.07;;;1.60;;
20557;SDS011;10437;48.156;11.530;2022-07-18T12:52:21;3.33;;;1.40;;
20557;SDS011;10437;48.156;11.530;2022-07-18T12:54:49;4.60;;;1.70;;
20557;SDS011;10437;48.156;11.530;2022-07-18T12:57:16;4.15;;;1.40;;
20557;SDS011;10437;48.156;11.530;2022-07-18T12:59:44;2.10;;;1.20;;
20557;SDS011;10437;48.156;11.530;2022-07-18T13:02:11;3.20;;;1.45;;
20557;SDS011;10437;48.156;11.530;2022-07-18T13:04:39;3.42;;;1.42;;
20557;SDS011;10437;48.156;11.530;2022-07-18T13:07:06;2.15;;;1.30;;
20557;SDS011;10437;48.156;11.530;2022-07-18T13:09:35;2.42;;;1.50;;
20557;SDS011;10437;48.156;11.530;2022-07-18T13:12:02;3.00;;;1.67;;
20557;SDS011;10437;48.156;11.530;2022-07-18T13:14:29;4.80;;;1.50;;
20557;SDS011;10437;48.156;11.530;2022-07-18T13:16:56;2.90;;;1.50;;
20557;SDS011;10437;48.156;11.530;2022-07-18T13:19:23;3.92;;;1.50;;
20557;SDS011;10437;48.156;11.530;2022-07-18T13:21:52;1.70;;;1.48;;
20557;SDS011;10437;48.156;11.530;2022-07-18T13:24:19;2.47;;;1.70;;
20557;SDS011;10437;48.156;11.530;2022-07-18T13:26:47;1.90;;;1.50;;
20557;SDS011;10437;48.156;11.530;2022-07-18T13:29:14;3.15;;;1.30;;
20557;SDS011;10437;48.156;11.530;2022-07-18T13:31:42;4.10;;;1.48;;
20557;SDS011;10437;48.156;11.530;2022-07-18T13:34:09;3.80;;;2.35;;
20557;SDS011;10437;48.156;11.530;2022-07-18T13:36:36;4.65;;;1.90;;
20557;SDS011;10437;48.156;11.530;2022-07-18T13:39:03;2.78;;;2.20;;
20557;SDS011;10437;48.156;11.530;2022-07-18T13:41:30;3.47;;;1.65;;
20557;SDS011;10437;48.156;11.530;2022-07-18T13:43:59;3.05;;;1.55;;
20557;SDS011;10437;48.156;11.530;2022-07-18T13:46:26;3.35;;;1.33;;
20557;SDS011;10437;48.156;11.530;2022-07-18T13:48:53;2.45;;;1.42;;
20557;SDS011;10437;48.156;11.530;2022-07-18T13:51:20;5.50;;;1.50;;
20557;SDS011;10437;48.156;11.530;2022-07-18T13:53:48;3.15;;;1.38;;
20557;SDS011;10437;48.156;11.530;2022-07-18T13:56:15;7.47;;;1.48;;
20557;SDS011;10437;48.156;11.530;2022-07-18T13:58:42;3.13;;;1.40;;
20557;SDS011;10437;48.156;11.530;2022-07-18T14:01:12;4.78;;;1.50;;
20557;SDS011;10437;48.156;11.530;2022-07-18T14:03:40;3.97;;;1.67;;
20557;SDS011;10437;48.156;11.530;2022-07-18T14:06:07;5.57;;;2.70;;
20557;SDS011;10437;48.156;11.530;2022-07-18T14:08:35;2.78;;;2.58;;
20557;SDS011;10437;48.156;11.530;2022-07-18T14:11:03;2.28;;;1.65;;
20557;SDS011;10437;48.156;11.530;2022-07-18T14:13:30;3.53;;;1.42;;
20557;SDS011;10437;48.156;11.530;2022-07-18T14:15:57;5.03;;;1.35;;
20557;SDS011;10437;48.156;11.530;2022-07-18T14:18:25;2.38;;;1.45;;
20557;SDS011;10437;48.156;11.530;2022-07-18T14:20:52;1.75;;;1.52;;
20557;SDS011;10437;48.156;11.530;2022-07-18T14:23:20;4.50;;;1.38;;
20557;SDS011;10437;48.156;11.530;2022-07-18T14:25:48;6.07;;;1.60;;
20557;SDS011;10437;48.156;11.530;2022-07-18T14:28:15;3.67;;;1.48;;
20557;SDS011;10437;48.156;11.530;2022-07-18T14:30:42;2.90;;;1.50;;
20557;SDS011;10437;48.156;11.530;2022-07-18T14:33:09;5.47;;;1.45;;
20557;SDS011;10437;48.156;11.530;2022-07-18T14:35:38;6.88;;;1.70;;
20557;SDS011;10437;48.156;11.530;2022-07-18T14:38:05;2.17;;;1.55;;
20557;SDS011;10437;48.156;11.530;2022-07-18T14:40:32;5.10;;;1.70;;
20557;SDS011;10437;48.156;11.530;2022-07-18T14:43:00;2.50;;;1.60;;
20557;SDS011;10437;48.156;11.530;2022-07-18T14:45:27;3.05;;;1.38;;
20557;SDS011;10437;48.156;11.530;2022-07-18T14:47:54;2.05;;;1.55;;
20557;SDS011;10437;48.156;11.530;2022-07-18T14:50:21;2.47;;;1.30;;
20557;SDS011;10437;48.156;11.530;2022-07-18T14:52:50;2.35;;;1.55;;
20557;SDS011;10437;48.156;11.530;2022-07-18T14:55:17;3.63;;;1.88;;
20557;SDS011;10437;48.156;11.530;2022-07-18T14:57:44;5.97;;;1.52;;